Time;durP1;ratioP1;P1;durP2;ratioP2;P2;SDS_P1;SDS_P2;PMS_P1;PMS_P2;Temp;Humidity;BMP_temperature;BMP_pressure;BME280_temperature;BME280_humidity;BME280_pressure;Samples;Min_cycle;Max_cycle;Signal;HPM_P1;HPM_P2
2023/05/29 00:00:16;;;;;;;7.03;1.42;;;;;;;;;;6118005;23;20018;-84
2023/05/29 00:02:44;;;;;;;5.50;1.90;;;;;;;;;;6090955;23;20451;-84
2023/05/29 00:05:11;;;;;;;3.60;1.45;;;;;;;;;;6116011;23;20022;-85
2023/05/29 00:07:38;;;;;;;7.72;1.80;;;;;;;;;;6114276;23;20022;-84
2023/05/29 00:10:04;;;;;;;5.07;1.40;;;;;;;;;;6114272;23;20017;-84
2023/05/29 00:12:30;;;;;;;5.97;1.23;;;;;;;;;;6113880;23;20018;-84
2023/05/29 00:14:57;;;;;;;6.68;2.38;;;;;;;;;;6119097;23;20021;-85
2023/05/29 00:17:23;;;;;;;4.38;1.50;;;;;;;;;;6118229;23;20022;-85
2023/05/29 00:19:49;;;;;;;3.85;1.40;;;;;;;;;;6118401;23;20014;-84
2023/05/29 00:22:15;;;;;;;4.53;1.60;;;;;;;;;;6115769;23;20030;-84
2023/05/29 00:24:41;;;;;;;7.63;1.70;;;;;;;;;;6114733;23;20413;-84
2023/05/29 00:27:08;;;;;;;7.38;1.98;;;;;;;;;;6114661;23;20025;-84
2023/05/29 00:29:35;;;;;;;6.65;1.63;;;;;;;;;;6114397;23;20439;-83
2023/05/29 00:32:01;;;;;;;7.60;3.15;;;;;;;;;;6116036;23;20021;-84
2023/05/29 00:34:28;;;;;;;6.80;1.35;;;;;;;;;;6115072;23;20014;-85
2023/05/29 00:36:57;;;;;;;5.93;1.50;;;;;;;;;;6117018;23;20042;-84
2023/05/29 00:39:23;;;;;;;4.88;1.30;;;;;;;;;;6116402;23;20017;-84
2023/05/29 00:41:50;;;;;;;8.68;2.00;;;;;;;;;;6114597;23;20100;-84
2023/05/29 00:44:20;;;;;;;6.70;1.40;;;;;;;;;;6117016;23;20045;-83
2023/05/29 00:46:46;;;;;;;8.13;1.40;;;;;;;;;;6115258;23;20026;-84
2023/05/29 00:49:13;;;;;;;6.53;2.20;;;;;;;;;;6115131;23;20014;-84
2023/05/29 00:51:39;;;;;;;6.93;2.38;;;;;;;;;;6116402;23;20029;-84
2023/05/29 00:54:07;;;;;;;4.93;1.38;;;;;;;;;;6116055;23;20014;-84
2023/05/29 00:56:35;;;;;;;9.27;1.73;;;;;;;;;;6113980;23;20062;-84
2023/05/29 00:59:01;;;;;;;4.95;1.58;;;;;;;;;;6115353;23;20022;-84
2023/05/29 01:01:28;;;;;;;7.05;2.83;;;;;;;;;;6090845;23;20028;-84
2023/05/29 01:03:58;;;;;;;5.35;1.33;;;;;;;;;;6118007;23;20332;-84
2023/05/29 01:06:25;;;;;;;7.22;1.90;;;;;;;;;;6115909;23;20018;-84
2023/05/29 01:08:51;;;;;;;9.57;2.40;;;;;;;;;;6114694;23;20103;-84
2023/05/29 01:11:17;;;;;;;8.13;1.58;;;;;;;;;;6117916;23;20022;-84
2023/05/29 01:13:44;;;;;;;6.70;1.60;;;;;;;;;;6117346;23;20030;-84
2023/05/29 01:16:18;;;;;;;7.05;1.42;;;;;;;;;;6115470;23;20017;-84
2023/05/29 01:18:52;;;;;;;8.18;2.80;;;;;;;;;;6117389;23;20014;-84
2023/05/29 01:21:27;;;;;;;6.47;1.27;;;;;;;;;;6116378;23;20025;-84
2023/05/29 01:23:57;;;;;;;7.63;1.70;;;;;;;;;;6115422;23;20028;-83
2023/05/29 01:26:40;;;;;;;8.27;1.95;;;;;;;;;;6118186;23;20026;-83
2023/05/29 01:29:07;;;;;;;10.15;2.08;;;;;;;;;;6119515;23;20068;-85
2023/05/29 01:31:35;;;;;;;7.45;1.33;;;;;;;;;;6118028;23;20335;-90
2023/05/29 01:34:01;;;;;;;8.05;1.30;;;;;;;;;;6119106;23;20010;-85
2023/05/29 01:36:27;;;;;;;6.30;1.70;;;;;;;;;;6117015;23;20451;-86
2023/05/29 01:38:55;;;;;;;10.18;2.08;;;;;;;;;;6118687;23;20388;-84
2023/05/29 01:41:22;;;;;;;8.00;1.52;;;;;;;;;;6117674;23;20014;-84
2023/05/29 01:43:48;;;;;;;6.60;1.55;;;;;;;;;;6116154;23;20286;-84
2023/05/29 01:46:14;;;;;;;5.05;1.90;;;;;;;;;;6117116;23;20400;-85
2023/05/29 01:48:41;;;;;;;4.05;1.50;;;;;;;;;;6114445;23;20025;-83
2023/05/29 01:51:08;;;;;;;5.03;2.30;;;;;;;;;;6118692;23;20673;-84
2023/05/29 01:53:34;;;;;;;6.30;1.45;;;;;;;;;;6115457;23;20022;-84
2023/05/29 01:56:00;;;;;;;5.15;1.40;;;;;;;;;;6116894;23;20013;-85
2023/05/29 01:58:28;;;;;;;6.05;1.27;;;;;;;;;;6115800;23;20094;-84
2023/05/29 02:00:55;;;;;;;3.70;1.55;;;;;;;;;;6116951;23;20030;-87
2023/05/29 02:03:21;;;;;;;5.82;1.38;;;;;;;;;;6115831;23;20022;-83
2023/05/29 02:05:47;;;;;;;4.82;1.45;;;;;;;;;;6117490;23;20017;-83
2023/05/29 02:08:13;;;;;;;5.50;2.08;;;;;;;;;;6116210;23;20097;-84
2023/05/29 02:10:39;;;;;;;4.32;0.95;;;;;;;;;;6116993;23;20494;-84
2023/05/29 02:13:05;;;;;;;8.43;2.38;;;;;;;;;;6115849;23;20056;-84
2023/05/29 02:15:31;;;;;;;5.40;1.70;;;;;;;;;;6116423;23;20018;-83
2023/05/29 02:17:57;;;;;;;5.63;1.55;;;;;;;;;;6117637;23;20046;-84
2023/05/29 02:20:24;;;;;;;5.40;1.48;;;;;;;;;;6114942;23;20029;-83
2023/05/29 02:22:50;;;;;;;8.10;2.08;;;;;;;;;;6117841;23;20021;-84
2023/05/29 02:25:16;;;;;;;5.40;1.15;;;;;;;;;;6115939;23;20053;-84
2023/05/29 02:27:42;;;;;;;5.70;1.58;;;;;;;;;;6115668;23;20021;-83
2023/05/29 02:30:08;;;;;;;10.68;1.65;;;;;;;;;;6118853;23;20045;-83
2023/05/29 02:32:34;;;;;;;5.00;1.58;;;;;;;;;;6114785;23;20049;-83
2023/05/29 02:35:00;;;;;;;8.10;1.40;;;;;;;;;;6115604;23;20339;-84
2023/05/29 02:37:26;;;;;;;4.13;1.00;;;;;;;;;;6116646;23;20028;-84
2023/05/29 02:39:52;;;;;;;5.10;1.90;;;;;;;;;;6115065;23;20026;-84
2023/05/29 02:42:18;;;;;;;4.88;1.20;;;;;;;;;;6117620;23;20808;-84
2023/05/29 02:44:45;;;;;;;7.57;2.40;;;;;;;;;;6116617;23;20049;-84
2023/05/29 02:47:11;;;;;;;7.30;2.08;;;;;;;;;;6118220;23;20014;-84
2023/05/29 02:49:37;;;;;;;7.68;1.63;;;;;;;;;;6116339;23;20407;-84
2023/05/29 02:52:03;;;;;;;4.78;1.30;;;;;;;;;;6117831;23;20029;-84
2023/05/29 02:54:29;;;;;;;8.80;1.67;;;;;;;;;;6115991;23;20053;-83
2023/05/29 02:56:55;;;;;;;4.22;1.30;;;;;;;;;;6117777;23;20017;-83
2023/05/29 02:59:21;;;;;;;6.13;1.10;;;;;;;;;;6115520;23;20402;-83
2023/05/29 03:01:48;;;;;;;4.07;1.33;;;;;;;;;;6116786;23;20014;-83
2023/05/29 03:04:14;;;;;;;9.32;3.63;;;;;;;;;;6114952;23;20026;-82
2023/05/29 03:06:41;;;;;;;6.55;2.25;;;;;;;;;;6115387;23;20022;-82
2023/05/29 03:09:07;;;;;;;6.50;2.17;;;;;;;;;;6117078;23;20041;-83
2023/05/29 03:11:35;;;;;;;5.25;1.33;;;;;;;;;;6113890;23;20054;-83
2023/05/29 03:14:01;;;;;;;10.05;2.10;;;;;;;;;;6117310;23;20089;-82
2023/05/29 03:16:29;;;;;;;10.60;1.67;;;;;;;;;;6117325;23;20026;-83
2023/05/29 03:18:55;;;;;;;6.80;2.00;;;;;;;;;;6115283;23;20017;-83
2023/05/29 03:21:21;;;;;;;9.35;2.28;;;;;;;;;;6113207;23;20444;-83
2023/05/29 03:23:48;;;;;;;5.63;1.17;;;;;;;;;;6116345;23;20022;-83
2023/05/29 03:26:14;;;;;;;8.90;2.70;;;;;;;;;;6116693;23;20022;-82
2023/05/29 03:28:40;;;;;;;7.88;4.43;;;;;;;;;;6114897;23;20022;-83
2023/05/29 03:31:07;;;;;;;10.10;2.30;;;;;;;;;;6115994;23;20141;-83
2023/05/29 03:33:33;;;;;;;6.10;1.48;;;;;;;;;;6115864;23;20084;-82
2023/05/29 03:36:00;;;;;;;8.30;1.70;;;;;;;;;;6116258;23;20572;-82
2023/05/29 03:38:26;;;;;;;3.85;1.73;;;;;;;;;;6114150;23;20339;-83
2023/05/29 03:40:52;;;;;;;7.70;1.60;;;;;;;;;;6114094;23;20018;-82
2023/05/29 03:43:18;;;;;;;7.63;1.70;;;;;;;;;;6116514;23;20018;-81
2023/05/29 03:45:44;;;;;;;8.68;2.30;;;;;;;;;;6116371;23;20037;-81
2023/05/29 03:48:10;;;;;;;4.63;1.42;;;;;;;;;;6111646;23;20014;-83
2023/05/29 03:50:36;;;;;;;7.32;1.63;;;;;;;;;;6113811;23;20061;-82
2023/05/29 03:53:02;;;;;;;6.30;1.55;;;;;;;;;;6113502;23;20064;-82
2023/05/29 03:55:28;;;;;;;9.45;1.75;;;;;;;;;;6112993;23;20014;-83
2023/05/29 03:57:55;;;;;;;4.50;1.60;;;;;;;;;;6113460;23;20384;-82
2023/05/29 04:00:21;;;;;;;6.60;2.20;;;;;;;;;;6087336;23;20018;-82
2023/05/29 04:02:47;;;;;;;6.25;1.15;;;;;;;;;;6114086;23;20025;-82
2023/05/29 04:05:13;;;;;;;5.82;1.65;;;;;;;;;;6114137;23;20032;-82
2023/05/29 04:07:39;;;;;;;6.68;1.60;;;;;;;;;;6114481;23;20014;-82
2023/05/29 04:10:06;;;;;;;8.25;1.95;;;;;;;;;;6115550;23;20018;-82
2023/05/29 04:12:35;;;;;;;4.43;1.50;;;;;;;;;;6114654;23;20386;-82
2023/05/29 04:15:01;;;;;;;5.78;1.42;;;;;;;;;;6116661;23;20324;-82
2023/05/29 04:17:27;;;;;;;7.60;2.95;;;;;;;;;;6115767;23;20097;-82
2023/05/29 04:19:53;;;;;;;5.10;1.42;;;;;;;;;;6116510;23;20316;-82
2023/05/29 04:22:20;;;;;;;6.60;1.52;;;;;;;;;;6116068;23;20022;-82
2023/05/29 04:24:46;;;;;;;4.07;1.75;;;;;;;;;;6114989;23;20054;-81
2023/05/29 04:27:13;;;;;;;6.18;1.70;;;;;;;;;;6115728;23;20026;-82
2023/05/29 04:29:42;;;;;;;5.65;1.40;;;;;;;;;;6114085;23;20780;-82
2023/05/29 04:32:11;;;;;;;4.53;1.30;;;;;;;;;;6114402;23;20449;-82
2023/05/29 04:34:38;;;;;;;6.05;2.03;;;;;;;;;;6114684;23;20020;-83
2023/05/29 04:37:04;;;;;;;5.53;1.95;;;;;;;;;;6116384;23;20108;-82
2023/05/29 04:39:31;;;;;;;8.23;1.98;;;;;;;;;;6114107;23;20036;-83
2023/05/29 04:41:58;;;;;;;9.48;1.88;;;;;;;;;;6115204;23;20013;-82
2023/05/29 04:44:26;;;;;;;6.18;1.58;;;;;;;;;;6115205;23;20021;-83
2023/05/29 04:46:52;;;;;;;5.95;1.30;;;;;;;;;;6117256;23;20057;-82
2023/05/29 04:49:18;;;;;;;5.93;1.45;;;;;;;;;;6116794;23;20020;-83
2023/05/29 04:51:46;;;;;;;5.97;1.58;;;;;;;;;;6116562;23;20379;-83
2023/05/29 04:54:12;;;;;;;4.88;1.50;;;;;;;;;;6118674;23;20065;-83
2023/05/29 04:56:39;;;;;;;8.80;2.05;;;;;;;;;;6117628;23;20028;-84
2023/05/29 04:59:06;;;;;;;6.72;1.88;;;;;;;;;;6119265;23;20018;-84
2023/05/29 05:01:35;;;;;;;4.43;1.23;;;;;;;;;;6117784;23;20113;-84
2023/05/29 05:04:01;;;;;;;6.50;1.63;;;;;;;;;;6121096;23;20014;-82
2023/05/29 05:06:28;;;;;;;8.05;1.95;;;;;;;;;;6119589;23;20030;-91
2023/05/29 05:08:55;;;;;;;4.82;1.40;;;;;;;;;;6122222;23;20339;-87
2023/05/29 05:11:23;;;;;;;5.07;1.05;;;;;;;;;;6121423;23;20017;-83
2023/05/29 05:13:49;;;;;;;6.35;1.38;;;;;;;;;;6120291;23;20017;-88
2023/05/29 05:16:16;;;;;;;4.65;1.42;;;;;;;;;;6119190;23;20072;-86
2023/05/29 05:18:42;;;;;;;6.25;1.60;;;;;;;;;;6114536;23;20021;-86
2023/05/29 05:21:08;;;;;;;5.80;1.52;;;;;;;;;;6118085;23;20323;-86
2023/05/29 05:23:34;;;;;;;5.03;1.35;;;;;;;;;;6115423;23;20065;-88
2023/05/29 05:26:00;;;;;;;5.60;1.60;;;;;;;;;;6119795;23;20014;-85
2023/05/29 05:28:26;;;;;;;6.88;1.75;;;;;;;;;;6117895;23;20179;-86
2023/05/29 05:30:52;;;;;;;4.63;1.77;;;;;;;;;;6116013;23;20493;-85
2023/05/29 05:33:18;;;;;;;8.05;1.83;;;;;;;;;;6117239;23;20432;-92
2023/05/29 05:35:44;;;;;;;9.65;2.47;;;;;;;;;;6096322;23;20014;-91
2023/05/29 05:38:10;;;;;;;7.45;1.50;;;;;;;;;;6122230;23;20018;-92
2023/05/29 05:40:36;;;;;;;5.43;1.80;;;;;;;;;;6121313;23;20109;-91
2023/05/29 05:43:02;;;;;;;3.42;1.73;;;;;;;;;;6093225;23;20486;-93
2023/05/29 05:45:28;;;;;;;2.83;1.02;;;;;;;;;;6119817;23;20020;-93
2023/05/29 05:47:54;;;;;;;5.75;1.60;;;;;;;;;;6118935;23;20543;-90
2023/05/29 05:50:21;;;;;;;3.83;1.27;;;;;;;;;;6116719;23;20068;-84
2023/05/29 05:52:47;;;;;;;5.68;1.63;;;;;;;;;;6118084;23;20020;-86
2023/05/29 05:55:13;;;;;;;10.25;2.00;;;;;;;;;;6115912;23;20025;-87
2023/05/29 05:57:39;;;;;;;4.10;1.55;;;;;;;;;;6114594;23;20499;-85
2023/05/29 06:00:14;;;;;;;4.55;1.42;;;;;;;;;;6119336;23;20018;-92
2023/05/29 06:02:42;;;;;;;6.43;2.08;;;;;;;;;;6118212;23;20018;-86
2023/05/29 06:05:09;;;;;;;7.57;1.60;;;;;;;;;;6117026;23;20093;-87
2023/05/29 06:07:36;;;;;;;4.82;1.40;;;;;;;;;;6117680;23;20022;-86
2023/05/29 06:10:03;;;;;;;7.60;2.30;;;;;;;;;;6117767;23;20026;-84
2023/05/29 06:12:30;;;;;;;8.05;1.83;;;;;;;;;;6115258;23;20016;-85
2023/05/29 06:14:56;;;;;;;4.25;1.40;;;;;;;;;;6123546;23;20021;-86
2023/05/29 06:17:22;;;;;;;8.75;1.77;;;;;;;;;;6116330;23;20718;-84
2023/05/29 06:19:48;;;;;;;6.57;2.03;;;;;;;;;;6119895;23;20093;-86
2023/05/29 06:22:17;;;;;;;9.98;2.58;;;;;;;;;;6121544;23;20053;-88
2023/05/29 06:24:44;;;;;;;4.93;1.55;;;;;;;;;;6119705;23;20455;-87
2023/05/29 06:27:10;;;;;;;5.05;1.40;;;;;;;;;;6119643;23;20022;-87
2023/05/29 06:29:36;;;;;;;6.47;1.92;;;;;;;;;;6121311;23;20020;-85
2023/05/29 06:32:01;;;;;;;9.50;1.48;;;;;;;;;;6117993;23;20050;-86
2023/05/29 06:34:27;;;;;;;7.03;1.27;;;;;;;;;;6118026;23;20020;-87
2023/05/29 06:36:53;;;;;;;4.25;1.40;;;;;;;;;;6118946;23;20097;-88
2023/05/29 06:39:20;;;;;;;7.72;1.77;;;;;;;;;;6118826;23;20052;-88
2023/05/29 06:41:46;;;;;;;6.72;2.03;;;;;;;;;;6120753;23;20042;-92
2023/05/29 06:44:12;;;;;;;4.93;1.08;;;;;;;;;;6115684;23;20033;-87
2023/05/29 06:46:38;;;;;;;4.47;1.42;;;;;;;;;;6114841;23;20037;-90
2023/05/29 06:49:04;;;;;;;7.53;2.33;;;;;;;;;;6120236;23;20091;-88
2023/05/29 06:51:32;;;;;;;4.93;2.00;;;;;;;;;;6117753;23;20336;-86
2023/05/29 06:53:58;;;;;;;6.00;1.50;;;;;;;;;;6119207;23;20018;-95
2023/05/29 06:56:25;;;;;;;7.82;1.70;;;;;;;;;;6117072;23;20093;-87
2023/05/29 06:58:51;;;;;;;5.45;1.25;;;;;;;;;;6093867;23;20076;-85
2023/05/29 07:01:17;;;;;;;4.65;1.48;;;;;;;;;;6121291;23;20097;-86
2023/05/29 07:03:44;;;;;;;9.43;1.98;;;;;;;;;;6116885;23;20010;-89
2023/05/29 07:06:09;;;;;;;7.70;1.80;;;;;;;;;;6121125;23;20025;-91
2023/05/29 07:08:35;;;;;;;7.03;1.40;;;;;;;;;;6092547;23;20014;-89
2023/05/29 07:11:02;;;;;;;7.38;2.33;;;;;;;;;;6096021;23;20014;-92
2023/05/29 07:13:28;;;;;;;5.35;1.60;;;;;;;;;;6092782;23;20105;-90
2023/05/29 07:15:54;;;;;;;8.30;2.05;;;;;;;;;;6118121;23;20045;-86
2023/05/29 07:18:20;;;;;;;7.10;1.80;;;;;;;;;;6116913;23;20018;-84
2023/05/29 07:20:46;;;;;;;9.10;1.60;;;;;;;;;;6117943;23;20141;-89
2023/05/29 07:23:12;;;;;;;6.53;1.73;;;;;;;;;;6121002;23;20025;-89
2023/05/29 07:25:38;;;;;;;6.85;1.80;;;;;;;;;;6117791;23;20026;-92
2023/05/29 07:28:05;;;;;;;6.68;1.88;;;;;;;;;;6121528;23;20320;-89
2023/05/29 07:30:31;;;;;;;8.75;1.75;;;;;;;;;;6115701;23;20018;-85
2023/05/29 07:32:57;;;;;;;7.68;1.50;;;;;;;;;;6119424;23;20014;-91
2023/05/29 07:35:23;;;;;;;8.32;1.70;;;;;;;;;;6118828;23;20018;-91
2023/05/29 07:37:51;;;;;;;5.03;1.45;;;;;;;;;;6093434;23;20029;-92
2023/05/29 07:40:17;;;;;;;6.47;1.88;;;;;;;;;;6120143;23;20049;-93
2023/05/29 07:42:43;;;;;;;5.07;1.63;;;;;;;;;;6093003;23;20021;-88
2023/05/29 07:45:10;;;;;;;5.03;1.77;;;;;;;;;;6122842;23;20094;-91
2023/05/29 07:47:36;;;;;;;11.57;2.13;;;;;;;;;;6093429;23;20073;-90
2023/05/29 07:50:03;;;;;;;6.18;2.38;;;;;;;;;;6096595;23;20018;-91
2023/05/29 07:52:29;;;;;;;10.02;2.22;;;;;;;;;;6116715;23;20077;-84
2023/05/29 07:54:55;;;;;;;15.02;2.80;;;;;;;;;;6114596;23;20030;-95
2023/05/29 07:57:21;;;;;;;9.02;2.05;;;;;;;;;;6118429;23;20335;-88
2023/05/29 07:59:49;;;;;;;5.68;1.67;;;;;;;;;;6117348;23;20013;-88
2023/05/29 08:02:16;;;;;;;5.22;1.75;;;;;;;;;;6094625;23;20117;-95
2023/05/29 08:04:44;;;;;;;10.10;2.30;;;;;;;;;;6122082;23;20014;-90
2023/05/29 08:07:10;;;;;;;8.82;2.28;;;;;;;;;;6120809;23;20014;-89
2023/05/29 08:09:36;;;;;;;7.78;1.77;;;;;;;;;;6120317;23;20065;-89
2023/05/29 08:12:02;;;;;;;9.10;2.10;;;;;;;;;;6098502;23;20026;-89
2023/05/29 08:14:29;;;;;;;9.80;2.10;;;;;;;;;;6123008;23;20045;-90
2023/05/29 08:16:55;;;;;;;7.60;1.85;;;;;;;;;;6123596;23;20072;-88
2023/05/29 08:19:21;;;;;;;5.93;1.92;;;;;;;;;;6119471;23;20021;-93
2023/05/29 08:21:47;;;;;;;10.70;2.20;;;;;;;;;;6097727;23;20114;-86
2023/05/29 08:24:14;;;;;;;9.13;2.17;;;;;;;;;;6124809;23;20351;-86
2023/05/29 08:26:40;;;;;;;7.55;2.15;;;;;;;;;;6126777;23;20022;-86
2023/05/29 08:29:06;;;;;;;8.52;2.25;;;;;;;;;;6126373;23;20014;-89
2023/05/29 08:31:32;;;;;;;10.63;2.60;;;;;;;;;;6120541;23;20022;-93
2023/05/29 08:33:58;;;;;;;7.25;2.60;;;;;;;;;;6098558;23;20034;-90
2023/05/29 08:36:25;;;;;;;7.15;1.65;;;;;;;;;;6122651;23;20018;-88
2023/05/29 08:38:51;;;;;;;10.13;3.22;;;;;;;;;;6097143;23;20013;-89
2023/05/29 08:41:38;;;;;;;10.98;2.65;;;;;;;;;;6096071;23;20021;-91
2023/05/29 08:44:05;;;;;;;7.90;1.85;;;;;;;;;;6106272;23;20098;-87
2023/05/29 08:46:32;;;;;;;13.60;2.55;;;;;;;;;;6121897;23;20021;-90
2023/05/29 08:48:59;;;;;;;6.65;1.80;;;;;;;;;;6121631;23;20447;-89
2023/05/29 08:51:29;;;;;;;8.50;1.80;;;;;;;;;;6121549;23;20082;-94
2023/05/29 08:53:55;;;;;;;;;;;;;;;;;;6120497;23;20024;-91
2023/05/29 08:56:22;;;;;;;10.35;2.20;;;;;;;;;;6122894;23;19956;-91
2023/05/29 08:58:48;;;;;;;9.00;2.13;;;;;;;;;;6120440;23;20475;-90
2023/05/29 09:01:15;;;;;;;6.32;1.67;;;;;;;;;;6097798;23;20017;-88
2023/05/29 09:03:41;;;;;;;6.07;1.55;;;;;;;;;;6121820;23;20017;-92
2023/05/29 09:06:08;;;;;;;10.35;1.90;;;;;;;;;;6120595;23;20066;-90
2023/05/29 09:08:34;;;;;;;5.95;1.67;;;;;;;;;;6120919;23;20022;-88
2023/05/29 09:11:00;;;;;;;5.47;1.75;;;;;;;;;;6122617;23;20069;-89
2023/05/29 09:13:28;;;;;;;8.13;1.23;;;;;;;;;;6121229;23;20037;-87
2023/05/29 09:16:00;;;;;;;7.35;2.13;;;;;;;;;;6121759;23;20081;-91
2023/05/29 09:18:30;;;;;;;7.28;2.17;;;;;;;;;;6120482;23;20018;-91
2023/05/29 09:20:57;;;;;;;4.97;1.95;;;;;;;;;;6121593;23;20018;-90
2023/05/29 09:23:23;;;;;;;8.18;1.80;;;;;;;;;;6121010;23;20022;-93
2023/05/29 09:25:53;;;;;;;6.15;1.55;;;;;;;;;;6121068;23;20026;-88
2023/05/29 09:28:19;;;;;;;7.88;2.45;;;;;;;;;;6120721;23;20014;-90
2023/05/29 09:30:46;;;;;;;6.25;1.70;;;;;;;;;;6118222;23;20467;-90
2023/05/29 09:33:14;;;;;;;12.88;2.35;;;;;;;;;;6121690;23;20013;-92
2023/05/29 09:35:40;;;;;;;5.75;1.40;;;;;;;;;;6120770;23;20025;-91
2023/05/29 09:38:07;;;;;;;7.95;1.90;;;;;;;;;;6123802;23;20021;-93
2023/05/29 09:40:34;;;;;;;7.07;1.40;;;;;;;;;;6120852;23;20029;-86
2023/05/29 09:43:13;;;;;;;9.15;1.88;;;;;;;;;;6122004;23;20022;-94
2023/05/29 09:45:44;;;;;;;9.77;1.73;;;;;;;;;;6120604;23;20022;-88
2023/05/29 09:48:17;;;;;;;7.90;1.40;;;;;;;;;;6100356;23;20070;-92
2023/05/29 09:50:44;;;;;;;9.65;2.40;;;;;;;;;;6096950;23;20014;-90
2023/05/29 09:53:18;;;;;;;6.00;1.33;;;;;;;;;;6121467;23;20069;-95
2023/05/29 09:55:46;;;;;;;5.38;1.42;;;;;;;;;;6120857;23;20065;-92
2023/05/29 09:58:13;;;;;;;5.95;2.03;;;;;;;;;;6118711;23;20037;-87
2023/05/29 10:00:40;;;;;;;6.93;1.63;;;;;;;;;;6121553;23;20022;-93
2023/05/29 10:03:06;;;;;;;5.55;1.67;;;;;;;;;;6124288;23;20037;-92
2023/05/29 10:05:32;;;;;;;8.98;1.83;;;;;;;;;;6122565;23;20494;-87
2023/05/29 10:08:01;;;;;;;5.35;1.50;;;;;;;;;;6125074;23;20460;-91
2023/05/29 10:10:29;;;;;;;5.88;1.58;;;;;;;;;;6122591;23;20042;-93
2023/05/29 10:12:56;;;;;;;8.13;1.98;;;;;;;;;;6123758;23;20089;-90
2023/05/29 10:15:24;;;;;;;5.75;1.50;;;;;;;;;;6123097;23;20022;-89
2023/05/29 10:17:56;;;;;;;7.70;1.90;;;;;;;;;;6097282;23;20024;-86
2023/05/29 10:20:23;;;;;;;7.25;1.80;;;;;;;;;;6120297;23;20093;-88
2023/05/29 10:22:51;;;;;;;7.20;1.60;;;;;;;;;;6119009;23;20028;-89
2023/05/29 10:25:20;;;;;;;10.80;2.17;;;;;;;;;;6122201;23;20022;-92
2023/05/29 10:27:46;;;;;;;5.32;1.90;;;;;;;;;;6124308;23;20331;-91
2023/05/29 10:30:18;;;;;;;6.72;1.52;;;;;;;;;;6100085;23;20026;-88
2023/05/29 10:33:03;;;;;;;5.55;1.50;;;;;;;;;;6098836;23;20021;-87
2023/05/29 10:35:36;;;;;;;9.27;2.05;;;;;;;;;;6098385;23;20014;-88
2023/05/29 10:38:09;;;;;;;9.55;2.55;;;;;;;;;;6121651;23;20097;-94
2023/05/29 10:40:35;;;;;;;9.25;1.90;;;;;;;;;;6120870;23;20064;-90
2023/05/29 10:43:01;;;;;;;10.27;2.22;;;;;;;;;;6120749;23;20081;-91
2023/05/29 10:45:35;;;;;;;7.70;1.75;;;;;;;;;;6122605;23;20129;-90
2023/05/29 10:48:10;;;;;;;5.68;1.50;;;;;;;;;;6123021;23;20022;-88
2023/05/29 10:50:38;;;;;;;9.70;2.28;;;;;;;;;;6120789;23;20085;-90
2023/05/29 10:53:06;;;;;;;6.38;1.83;;;;;;;;;;6096171;23;20026;-92
2023/05/29 10:55:36;;;;;;;5.13;1.95;;;;;;;;;;6119010;23;20045;-86
2023/05/29 10:58:05;;;;;;;9.75;2.22;;;;;;;;;;6119465;23;20258;-89
2023/05/29 11:00:31;;;;;;;6.80;1.40;;;;;;;;;;6118313;23;20026;-87
2023/05/29 11:02:57;;;;;;;8.20;1.60;;;;;;;;;;6120819;23;20018;-89
2023/05/29 11:05:24;;;;;;;7.32;2.33;;;;;;;;;;6120641;23;20375;-93
2023/05/29 11:07:55;;;;;;;8.13;2.30;;;;;;;;;;6122351;23;20014;-90
2023/05/29 11:10:40;;;;;;;5.78;2.00;;;;;;;;;;6119510;23;20320;-88
2023/05/29 11:13:07;;;;;;;10.10;2.10;;;;;;;;;;6095157;23;20018;-87
2023/05/29 11:15:33;;;;;;;6.03;1.90;;;;;;;;;;6120722;23;20014;-90
2023/05/29 11:18:09;;;;;;;7.45;1.67;;;;;;;;;;6117902;23;20490;-88
2023/05/29 11:20:51;;;;;;;6.15;1.70;;;;;;;;;;6118677;23;20026;-93
2023/05/29 11:23:18;;;;;;;8.45;2.20;;;;;;;;;;6117523;23;20380;-89
2023/05/29 11:25:45;;;;;;;6.22;1.45;;;;;;;;;;6097237;23;20569;-90
2023/05/29 11:28:11;;;;;;;4.70;1.35;;;;;;;;;;6119972;23;20022;-89
2023/05/29 11:30:44;;;;;;;7.40;1.88;;;;;;;;;;6097811;23;20029;-91
2023/05/29 11:33:16;;;;;;;7.05;1.65;;;;;;;;;;6125500;23;20035;-87
2023/05/29 11:35:42;;;;;;;3.55;1.60;;;;;;;;;;6125022;23;20022;-87
2023/05/29 11:38:08;;;;;;;5.65;2.40;;;;;;;;;;6120346;23;20022;-87
2023/05/29 11:40:38;;;;;;;4.93;1.25;;;;;;;;;;6120057;23;20064;-88
2023/05/29 11:43:04;;;;;;;7.57;2.13;;;;;;;;;;6119946;23;20060;-92
2023/05/29 11:45:32;;;;;;;6.85;2.28;;;;;;;;;;6120605;23;20017;-89
2023/05/29 11:48:03;;;;;;;7.95;1.70;;;;;;;;;;6120821;23;20467;-91
2023/05/29 11:50:30;;;;;;;8.32;1.85;;;;;;;;;;6122427;23;20046;-93
2023/05/29 11:52:58;;;;;;;8.40;1.67;;;;;;;;;;6121251;23;20014;-89
2023/05/29 11:55:24;;;;;;;7.93;2.33;;;;;;;;;;6121434;23;20049;-90
2023/05/29 11:57:51;;;;;;;4.72;1.58;;;;;;;;;;6120690;23;20022;-91
2023/05/29 12:00:18;;;;;;;8.27;1.77;;;;;;;;;;6122843;23;20014;-92
2023/05/29 12:02:46;;;;;;;4.10;1.17;;;;;;;;;;6122118;23;20014;-86
2023/05/29 12:05:14;;;;;;;5.75;1.60;;;;;;;;;;6118980;23;20028;-89
2023/05/29 12:07:48;;;;;;;8.85;2.05;;;;;;;;;;6119969;23;20025;-89
2023/05/29 12:10:15;;;;;;;8.77;1.90;;;;;;;;;;6093866;23;20022;-90
2023/05/29 12:12:41;;;;;;;4.50;1.35;;;;;;;;;;6118589;23;20014;-87
2023/05/29 12:15:08;;;;;;;5.53;1.50;;;;;;;;;;6117971;23;20085;-91
2023/05/29 12:17:35;;;;;;;5.78;2.03;;;;;;;;;;6119422;23;20025;-92
2023/05/29 12:20:01;;;;;;;7.00;2.00;;;;;;;;;;6121604;23;20050;-88
2023/05/29 12:22:34;;;;;;;6.65;1.73;;;;;;;;;;6120912;23;20018;-89
2023/05/29 12:25:08;;;;;;;8.43;1.65;;;;;;;;;;6094860;23;20475;-89
2023/05/29 12:27:41;;;;;;;6.10;1.42;;;;;;;;;;6117508;23;20018;-88
2023/05/29 12:30:08;;;;;;;8.52;1.80;;;;;;;;;;6096417;23;20135;-94
2023/05/29 12:32:38;;;;;;;5.25;1.52;;;;;;;;;;6118772;23;20105;-93
2023/05/29 12:35:30;;;;;;;5.35;1.48;;;;;;;;;;6120669;23;20006;-89
2023/05/29 12:38:08;;;;;;;6.80;1.67;;;;;;;;;;6114661;23;20038;-87
2023/05/29 12:40:34;;;;;;;8.95;1.85;;;;;;;;;;6118730;23;20088;-89
2023/05/29 12:43:09;;;;;;;4.93;1.70;;;;;;;;;;6119692;23;20743;-89
2023/05/29 12:45:35;;;;;;;4.60;1.35;;;;;;;;;;6116933;23;20045;-91
2023/05/29 12:48:05;;;;;;;8.90;1.80;;;;;;;;;;6118995;23;20026;-93
2023/05/29 12:50:32;;;;;;;8.27;1.90;;;;;;;;;;6092434;23;20030;-91
2023/05/29 12:52:59;;;;;;;5.07;1.17;;;;;;;;;;6117715;23;20014;-85
2023/05/29 12:55:25;;;;;;;8.57;1.50;;;;;;;;;;6117485;23;20025;-90
2023/05/29 12:57:53;;;;;;;5.20;1.70;;;;;;;;;;6117209;23;20029;-86
2023/05/29 13:00:19;;;;;;;4.80;1.65;;;;;;;;;;6115556;23;20022;-85
2023/05/29 13:02:46;;;;;;;7.10;1.67;;;;;;;;;;6118972;23;20021;-84
2023/05/29 13:05:12;;;;;;;6.57;2.05;;;;;;;;;;6117163;23;20376;-89
2023/05/29 13:07:38;;;;;;;7.72;1.60;;;;;;;;;;6121860;23;20037;-88
2023/05/29 13:10:04;;;;;;;9.40;1.38;;;;;;;;;;6121180;23;20018;-91
2023/05/29 13:12:30;;;;;;;6.72;1.98;;;;;;;;;;6120575;23;20010;-89
2023/05/29 13:14:56;;;;;;;6.53;1.58;;;;;;;;;;6121895;23;20048;-86
2023/05/29 13:17:22;;;;;;;5.40;1.60;;;;;;;;;;6117850;23;20026;-89
2023/05/29 13:19:48;;;;;;;4.20;1.60;;;;;;;;;;6096697;23;20286;-89
2023/05/29 13:22:14;;;;;;;3.85;1.65;;;;;;;;;;6118563;23;20025;-89
2023/05/29 13:24:41;;;;;;;10.57;2.15;;;;;;;;;;6119356;23;20045;-87
2023/05/29 13:27:07;;;;;;;6.90;1.95;;;;;;;;;;6121015;23;20402;-89
2023/05/29 13:29:33;;;;;;;6.53;1.30;;;;;;;;;;6117355;23;20018;-85
2023/05/29 13:31:59;;;;;;;6.45;1.73;;;;;;;;;;6121518;23;20013;-84
2023/05/29 13:34:28;;;;;;;5.00;1.60;;;;;;;;;;6117959;23;20026;-91
2023/05/29 13:36:55;;;;;;;5.40;1.55;;;;;;;;;;6119144;23;20020;-88
2023/05/29 13:39:21;;;;;;;4.30;1.33;;;;;;;;;;6118812;23;20045;-92
2023/05/29 13:41:47;;;;;;;8.75;1.65;;;;;;;;;;6117609;23;20800;-91
2023/05/29 13:44:13;;;;;;;4.68;1.27;;;;;;;;;;6121262;23;20013;-89
2023/05/29 13:46:39;;;;;;;8.27;2.25;;;;;;;;;;6117797;23;20348;-88
2023/05/29 13:49:07;;;;;;;8.50;1.42;;;;;;;;;;6118928;23;20017;-86
2023/05/29 13:51:33;;;;;;;7.88;1.48;;;;;;;;;;6117209;23;20022;-85
2023/05/29 13:53:59;;;;;;;6.40;1.92;;;;;;;;;;6116326;23;20014;-87
2023/05/29 13:56:26;;;;;;;6.80;1.80;;;;;;;;;;6118808;23;20014;-85
2023/05/29 13:58:53;;;;;;;5.38;1.25;;;;;;;;;;6119024;23;20330;-88
2023/05/29 14:01:19;;;;;;;3.25;1.30;;;;;;;;;;6118217;23;20025;-86
2023/05/29 14:03:45;;;;;;;6.45;1.30;;;;;;;;;;6097824;23;20018;-88
2023/05/29 14:06:11;;;;;;;5.07;1.70;;;;;;;;;;6121025;23;20022;-86
2023/05/29 14:08:38;;;;;;;4.13;1.30;;;;;;;;;;6093544;23;20022;-84
2023/05/29 14:11:04;;;;;;;4.25;1.30;;;;;;;;;;6120119;23;20107;-90
2023/05/29 14:13:30;;;;;;;4.10;1.10;;;;;;;;;;6095231;23;20014;-86
2023/05/29 14:15:56;;;;;;;6.75;1.48;;;;;;;;;;6123459;23;20014;-90
2023/05/29 14:18:23;;;;;;;5.30;1.20;;;;;;;;;;6120260;23;20093;-86
2023/05/29 14:20:49;;;;;;;4.35;1.05;;;;;;;;;;6121411;23;20088;-92
2023/05/29 14:23:17;;;;;;;7.93;1.90;;;;;;;;;;6119937;23;20022;-88
2023/05/29 14:25:43;;;;;;;6.78;1.58;;;;;;;;;;6094870;23;20010;-89
2023/05/29 14:28:10;;;;;;;2.42;0.95;;;;;;;;;;6119115;23;20049;-87
2023/05/29 14:30:36;;;;;;;2.95;0.90;;;;;;;;;;6097301;23;20053;-89
2023/05/29 14:33:02;;;;;;;5.22;1.83;;;;;;;;;;6122490;23;20430;-92
2023/05/29 14:35:28;;;;;;;5.90;1.70;;;;;;;;;;6095149;23;20336;-89
2023/05/29 14:37:54;;;;;;;4.28;1.30;;;;;;;;;;6119557;23;20018;-86
2023/05/29 14:40:20;;;;;;;4.70;1.20;;;;;;;;;;6119968;23;20021;-90
2023/05/29 14:42:46;;;;;;;7.00;1.38;;;;;;;;;;6120601;23;20018;-88